sensor_id;sensor_type;location;lat;lon;timestamp;P1;durP1;ratioP1;P2;durP2;ratioP2
80983;SDS011;70442;53.094;8.792;2023-09-12T00:01:02;9.88;;;7.13;;
80983;SDS011;70442;53.094;8.792;2023-09-12T00:03:30;9.65;;;6.38;;
80983;SDS011;70442;53.094;8.792;2023-09-12T00:05:56;10.55;;;6.65;;
80983;SDS011;70442;53.094;8.792;2023-09-12T00:08:24;9.23;;;6.68;;
80983;SDS011;70442;53.094;8.792;2023-09-12T00:11:06;9.05;;;6.03;;
80983;SDS011;70442;53.094;8.792;2023-09-12T00:13:36;9.02;;;6.32;;
80983;SDS011;70442;53.094;8.792;2023-09-12T00:16:02;8.88;;;5.82;;
80983;SDS011;70442;53.094;8.792;2023-09-12T00:18:27;8.35;;;5.82;;
80983;SDS011;70442;53.094;8.792;2023-09-12T00:20:52;7.97;;;5.95;;
80983;SDS011;70442;53.094;8.792;2023-09-12T00:23:20;9.43;;;6.40;;
80983;SDS011;70442;53.094;8.792;2023-09-12T00:25:46;9.95;;;6.53;;
80983;SDS011;70442;53.094;8.792;2023-09-12T00:28:11;7.37;;;5.27;;
80983;SDS011;70442;53.094;8.792;2023-09-12T00:30:37;8.70;;;6.43;;
80983;SDS011;70442;53.094;8.792;2023-09-12T00:33:02;10.33;;;6.57;;
80983;SDS011;70442;53.094;8.792;2023-09-12T00:35:28;9.00;;;6.43;;
80983;SDS011;70442;53.094;8.792;2023-09-12T00:37:53;8.37;;;6.40;;
80983;SDS011;70442;53.094;8.792;2023-09-12T00:40:18;10.13;;;6.47;;
80983;SDS011;70442;53.094;8.792;2023-09-12T00:42:44;9.27;;;6.30;;
80983;SDS011;70442;53.094;8.792;2023-09-12T00:45:09;10.25;;;6.90;;
80983;SDS011;70442;53.094;8.792;2023-09-12T00:47:35;10.50;;;7.03;;
80983;SDS011;70442;53.094;8.792;2023-09-12T00:50:01;8.43;;;6.13;;
80983;SDS011;70442;53.094;8.792;2023-09-12T00:52:28;10.27;;;7.10;;
80983;SDS011;70442;53.094;8.792;2023-09-12T00:54:54;8.20;;;5.72;;
80983;SDS011;70442;53.094;8.792;2023-09-12T00:57:20;11.70;;;7.25;;
80983;SDS011;70442;53.094;8.792;2023-09-12T00:59:47;11.25;;;7.20;;
80983;SDS011;70442;53.094;8.792;2023-09-12T01:02:12;9.05;;;6.95;;
80983;SDS011;70442;53.094;8.792;2023-09-12T01:04:38;9.37;;;7.03;;
80983;SDS011;70442;53.094;8.792;2023-09-12T01:07:04;9.95;;;6.53;;
80983;SDS011;70442;53.094;8.792;2023-09-12T01:09:29;10.40;;;7.05;;
80983;SDS011;70442;53.094;8.792;2023-09-12T01:11:55;8.77;;;6.40;;
80983;SDS011;70442;53.094;8.792;2023-09-12T01:14:21;10.35;;;7.05;;
80983;SDS011;70442;53.094;8.792;2023-09-12T01:16:46;9.27;;;6.23;;
80983;SDS011;70442;53.094;8.792;2023-09-12T01:19:11;12.85;;;6.60;;
80983;SDS011;70442;53.094;8.792;2023-09-12T01:30:00;11.85;;;7.45;;
80983;SDS011;70442;53.094;8.792;2023-09-12T01:32:29;9.90;;;6.82;;
80983;SDS011;70442;53.094;8.792;2023-09-12T01:34:54;9.90;;;7.28;;
80983;SDS011;70442;53.094;8.792;2023-09-12T01:37:20;11.87;;;7.60;;
80983;SDS011;70442;53.094;8.792;2023-09-12T01:39:45;11.27;;;7.33;;
80983;SDS011;70442;53.094;8.792;2023-09-12T01:42:11;9.23;;;6.82;;
80983;SDS011;70442;53.094;8.792;2023-09-12T01:44:40;14.25;;;9.00;;
80983;SDS011;70442;53.094;8.792;2023-09-12T01:49:32;9.45;;;6.75;;
80983;SDS011;70442;53.094;8.792;2023-09-12T01:51:58;10.10;;;7.18;;
80983;SDS011;70442;53.094;8.792;2023-09-12T01:54:26;10.20;;;6.88;;
80983;SDS011;70442;53.094;8.792;2023-09-12T01:56:52;8.77;;;6.13;;
80983;SDS011;70442;53.094;8.792;2023-09-12T01:59:22;9.77;;;7.00;;
80983;SDS011;70442;53.094;8.792;2023-09-12T02:01:47;9.10;;;6.40;;
80983;SDS011;70442;53.094;8.792;2023-09-12T02:04:13;8.87;;;6.23;;
80983;SDS011;70442;53.094;8.792;2023-09-12T02:06:38;8.97;;;6.40;;
80983;SDS011;70442;53.094;8.792;2023-09-12T02:09:03;9.67;;;6.93;;
80983;SDS011;70442;53.094;8.792;2023-09-12T02:11:29;9.15;;;6.47;;
80983;SDS011;70442;53.094;8.792;2023-09-12T02:13:54;9.70;;;6.93;;
80983;SDS011;70442;53.094;8.792;2023-09-12T02:16:19;8.10;;;5.93;;
80983;SDS011;70442;53.094;8.792;2023-09-12T02:18:45;11.80;;;7.03;;
80983;SDS011;70442;53.094;8.792;2023-09-12T02:21:10;8.83;;;6.73;;
80983;SDS011;70442;53.094;8.792;2023-09-12T02:23:35;9.27;;;6.63;;
80983;SDS011;70442;53.094;8.792;2023-09-12T02:26:01;8.57;;;6.13;;
80983;SDS011;70442;53.094;8.792;2023-09-12T02:28:26;8.35;;;5.72;;
80983;SDS011;70442;53.094;8.792;2023-09-12T02:30:51;8.90;;;6.37;;
80983;SDS011;70442;53.094;8.792;2023-09-12T02:33:17;7.50;;;6.40;;
80983;SDS011;70442;53.094;8.792;2023-09-12T02:35:42;7.17;;;6.37;;
80983;SDS011;70442;53.094;8.792;2023-09-12T02:38:07;10.83;;;6.83;;
80983;SDS011;70442;53.094;8.792;2023-09-12T02:40:33;10.30;;;6.82;;
80983;SDS011;70442;53.094;8.792;2023-09-12T02:42:58;9.07;;;6.87;;
80983;SDS011;70442;53.094;8.792;2023-09-12T02:45:23;9.50;;;6.80;;
80983;SDS011;70442;53.094;8.792;2023-09-12T02:47:49;8.77;;;6.03;;
80983;SDS011;70442;53.094;8.792;2023-09-12T02:50:14;8.40;;;6.17;;
80983;SDS011;70442;53.094;8.792;2023-09-12T02:52:39;7.32;;;5.38;;
80983;SDS011;70442;53.094;8.792;2023-09-12T02:55:05;8.80;;;6.65;;
80983;SDS011;70442;53.094;8.792;2023-09-12T02:57:31;8.95;;;6.40;;
80983;SDS011;70442;53.094;8.792;2023-09-12T02:59:56;8.60;;;7.00;;
80983;SDS011;70442;53.094;8.792;2023-09-12T03:02:21;11.10;;;7.00;;
80983;SDS011;70442;53.094;8.792;2023-09-12T03:04:47;8.65;;;6.45;;
80983;SDS011;70442;53.094;8.792;2023-09-12T03:07:12;9.40;;;6.27;;
80983;SDS011;70442;53.094;8.792;2023-09-12T03:09:37;9.50;;;7.13;;
80983;SDS011;70442;53.094;8.792;2023-09-12T03:12:03;9.38;;;6.93;;
80983;SDS011;70442;53.094;8.792;2023-09-12T03:14:31;8.20;;;5.97;;
80983;SDS011;70442;53.094;8.792;2023-09-12T03:16:57;11.32;;;6.20;;
80983;SDS011;70442;53.094;8.792;2023-09-12T03:19:23;8.10;;;6.03;;
80983;SDS011;70442;53.094;8.792;2023-09-12T03:21:48;8.97;;;6.07;;
80983;SDS011;70442;53.094;8.792;2023-09-12T03:24:13;8.23;;;6.07;;
80983;SDS011;70442;53.094;8.792;2023-09-12T03:26:39;6.87;;;5.27;;
80983;SDS011;70442;53.094;8.792;2023-09-12T03:29:04;7.93;;;5.53;;
80983;SDS011;70442;53.094;8.792;2023-09-12T03:31:30;8.85;;;5.35;;
80983;SDS011;70442;53.094;8.792;2023-09-12T03:33:55;8.80;;;6.18;;
80983;SDS011;70442;53.094;8.792;2023-09-12T03:36:21;8.52;;;6.00;;
80983;SDS011;70442;53.094;8.792;2023-09-12T03:38:46;9.10;;;5.97;;
80983;SDS011;70442;53.094;8.792;2023-09-12T03:41:11;9.20;;;6.20;;
80983;SDS011;70442;53.094;8.792;2023-09-12T03:43:37;9.88;;;6.30;;
80983;SDS011;70442;53.094;8.792;2023-09-12T03:46:02;9.30;;;6.45;;
80983;SDS011;70442;53.094;8.792;2023-09-12T03:48:31;9.77;;;7.22;;
80983;SDS011;70442;53.094;8.792;2023-09-12T03:50:56;9.38;;;7.00;;
80983;SDS011;70442;53.094;8.792;2023-09-12T03:53:22;10.80;;;7.45;;
80983;SDS011;70442;53.094;8.792;2023-09-12T03:55:47;8.63;;;6.27;;
80983;SDS011;70442;53.094;8.792;2023-09-12T03:58:12;8.33;;;6.00;;
80983;SDS011;70442;53.094;8.792;2023-09-12T04:00:38;9.33;;;6.63;;
80983;SDS011;70442;53.094;8.792;2023-09-12T04:03:03;9.67;;;6.87;;
80983;SDS011;70442;53.094;8.792;2023-09-12T04:05:29;9.18;;;6.30;;
80983;SDS011;70442;53.094;8.792;2023-09-12T04:07:54;10.67;;;6.50;;
80983;SDS011;70442;53.094;8.792;2023-09-12T04:10:19;8.13;;;5.83;;
80983;SDS011;70442;53.094;8.792;2023-09-12T04:12:45;7.10;;;5.38;;
80983;SDS011;70442;53.094;8.792;2023-09-12T04:15:10;7.40;;;5.90;;
80983;SDS011;70442;53.094;8.792;2023-09-12T04:17:36;9.43;;;5.73;;
80983;SDS011;70442;53.094;8.792;2023-09-12T04:20:01;7.33;;;6.13;;
80983;SDS011;70442;53.094;8.792;2023-09-12T04:22:26;7.97;;;5.68;;
80983;SDS011;70442;53.094;8.792;2023-09-12T04:27:18;6.67;;;5.17;;
80983;SDS011;70442;53.094;8.792;2023-09-12T04:29:44;8.90;;;6.57;;
80983;SDS011;70442;53.094;8.792;2023-09-12T04:32:09;8.57;;;6.18;;
80983;SDS011;70442;53.094;8.792;2023-09-12T04:34:36;8.95;;;6.63;;
80983;SDS011;70442;53.094;8.792;2023-09-12T04:37:02;9.10;;;6.53;;
80983;SDS011;70442;53.094;8.792;2023-09-12T04:39:27;9.30;;;6.40;;
80983;SDS011;70442;53.094;8.792;2023-09-12T04:41:53;8.57;;;6.78;;
80983;SDS011;70442;53.094;8.792;2023-09-12T04:44:18;8.60;;;6.73;;
80983;SDS011;70442;53.094;8.792;2023-09-12T04:46:43;9.13;;;6.82;;
80983;SDS011;70442;53.094;8.792;2023-09-12T04:49:09;9.37;;;6.60;;
80983;SDS011;70442;53.094;8.792;2023-09-12T04:51:34;8.37;;;6.37;;
80983;SDS011;70442;53.094;8.792;2023-09-12T04:53:59;9.37;;;6.77;;
80983;SDS011;70442;53.094;8.792;2023-09-12T04:56:25;10.02;;;7.43;;
80983;SDS011;70442;53.094;8.792;2023-09-12T04:58:50;9.17;;;7.20;;
80983;SDS011;70442;53.094;8.792;2023-09-12T05:01:16;9.73;;;7.47;;
80983;SDS011;70442;53.094;8.792;2023-09-12T05:03:41;10.65;;;6.75;;
80983;SDS011;70442;53.094;8.792;2023-09-12T05:06:07;9.73;;;6.85;;
80983;SDS011;70442;53.094;8.792;2023-09-12T05:08:32;8.77;;;7.10;;
80983;SDS011;70442;53.094;8.792;2023-09-12T05:10:58;12.27;;;8.47;;
80983;SDS011;70442;53.094;8.792;2023-09-12T05:13:23;10.30;;;7.63;;
80983;SDS011;70442;53.094;8.792;2023-09-12T05:15:48;8.63;;;6.50;;
80983;SDS011;70442;53.094;8.792;2023-09-12T05:18:14;9.53;;;6.67;;
80983;SDS011;70442;53.094;8.792;2023-09-12T05:20:39;10.85;;;6.93;;
80983;SDS011;70442;53.094;8.792;2023-09-12T05:23:04;10.27;;;7.50;;
80983;SDS011;70442;53.094;8.792;2023-09-12T05:25:30;8.37;;;6.53;;
80983;SDS011;70442;53.094;8.792;2023-09-12T05:27:55;9.03;;;6.67;;
80983;SDS011;70442;53.094;8.792;2023-09-12T05:30:21;8.57;;;6.10;;
80983;SDS011;70442;53.094;8.792;2023-09-12T05:32:46;7.45;;;5.90;;
80983;SDS011;70442;53.094;8.792;2023-09-12T05:35:11;8.80;;;6.03;;
80983;SDS011;70442;53.094;8.792;2023-09-12T05:37:37;8.85;;;6.32;;
80983;SDS011;70442;53.094;8.792;2023-09-12T05:40:04;9.55;;;6.82;;
80983;SDS011;70442;53.094;8.792;2023-09-12T05:42:30;8.07;;;5.78;;
80983;SDS011;70442;53.094;8.792;2023-09-12T05:44:56;10.10;;;6.82;;
80983;SDS011;70442;53.094;8.792;2023-09-12T05:47:21;9.23;;;6.60;;
80983;SDS011;70442;53.094;8.792;2023-09-12T05:49:47;10.18;;;6.75;;
80983;SDS011;70442;53.094;8.792;2023-09-12T05:52:12;8.37;;;6.17;;
80983;SDS011;70442;53.094;8.792;2023-09-12T05:54:38;8.43;;;6.57;;
80983;SDS011;70442;53.094;8.792;2023-09-12T05:57:04;11.43;;;7.72;;
80983;SDS011;70442;53.094;8.792;2023-09-12T05:59:30;10.02;;;6.63;;
80983;SDS011;70442;53.094;8.792;2023-09-12T06:01:56;10.23;;;6.93;;
80983;SDS011;70442;53.094;8.792;2023-09-12T06:04:21;10.83;;;7.57;;
80983;SDS011;70442;53.094;8.792;2023-09-12T06:06:47;9.60;;;6.60;;
80983;SDS011;70442;53.094;8.792;2023-09-12T06:09:12;11.65;;;8.13;;
80983;SDS011;70442;53.094;8.792;2023-09-12T06:11:37;10.23;;;7.43;;
80983;SDS011;70442;53.094;8.792;2023-09-12T06:14:03;9.75;;;7.43;;
80983;SDS011;70442;53.094;8.792;2023-09-12T06:16:28;10.70;;;6.88;;
80983;SDS011;70442;53.094;8.792;2023-09-12T06:18:54;9.93;;;6.95;;
80983;SDS011;70442;53.094;8.792;2023-09-12T06:21:20;9.93;;;7.40;;
80983;SDS011;70442;53.094;8.792;2023-09-12T06:23:46;10.60;;;7.65;;
80983;SDS011;70442;53.094;8.792;2023-09-12T06:26:12;9.55;;;7.30;;
80983;SDS011;70442;53.094;8.792;2023-09-12T06:28:37;9.65;;;7.32;;
80983;SDS011;70442;53.094;8.792;2023-09-12T06:31:03;10.43;;;7.43;;
80983;SDS011;70442;53.094;8.792;2023-09-12T06:33:28;9.98;;;7.00;;
80983;SDS011;70442;53.094;8.792;2023-09-12T06:35:53;11.87;;;6.93;;
80983;SDS011;70442;53.094;8.792;2023-09-12T06:38:20;9.82;;;6.95;;
80983;SDS011;70442;53.094;8.792;2023-09-12T06:40:46;10.55;;;7.50;;
80983;SDS011;70442;53.094;8.792;2023-09-12T06:43:12;9.82;;;6.90;;
80983;SDS011;70442;53.094;8.792;2023-09-12T06:45:40;9.63;;;6.68;;
80983;SDS011;70442;53.094;8.792;2023-09-12T06:48:05;10.73;;;7.63;;
80983;SDS011;70442;53.094;8.792;2023-09-12T06:50:31;9.25;;;6.43;;
80983;SDS011;70442;53.094;8.792;2023-09-12T06:52:56;8.40;;;6.17;;
80983;SDS011;70442;53.094;8.792;2023-09-12T06:55:21;9.90;;;6.73;;
80983;SDS011;70442;53.094;8.792;2023-09-12T06:57:47;9.70;;;6.93;;
80983;SDS011;70442;53.094;8.792;2023-09-12T07:00:12;9.53;;;6.63;;
80983;SDS011;70442;53.094;8.792;2023-09-12T07:02:38;9.15;;;6.75;;
80983;SDS011;70442;53.094;8.792;2023-09-12T07:05:04;8.05;;;5.85;;
80983;SDS011;70442;53.094;8.792;2023-09-12T07:07:29;8.35;;;6.43;;
80983;SDS011;70442;53.094;8.792;2023-09-12T07:09:55;9.40;;;6.63;;
80983;SDS011;70442;53.094;8.792;2023-09-12T07:12:21;7.47;;;5.38;;
80983;SDS011;70442;53.094;8.792;2023-09-12T07:14:46;9.82;;;6.50;;
80983;SDS011;70442;53.094;8.792;2023-09-12T07:17:11;9.00;;;6.47;;
80983;SDS011;70442;53.094;8.792;2023-09-12T07:19:37;8.33;;;5.17;;
80983;SDS011;70442;53.094;8.792;2023-09-12T07:22:02;9.20;;;6.60;;
80983;SDS011;70442;53.094;8.792;2023-09-12T07:24:28;7.30;;;5.63;;
80983;SDS011;70442;53.094;8.792;2023-09-12T07:26:53;7.77;;;5.37;;
80983;SDS011;70442;53.094;8.792;2023-09-12T07:29:19;7.53;;;5.47;;
80983;SDS011;70442;53.094;8.792;2023-09-12T07:31:44;9.70;;;6.57;;
80983;SDS011;70442;53.094;8.792;2023-09-12T07:34:09;7.22;;;5.25;;
80983;SDS011;70442;53.094;8.792;2023-09-12T07:36:37;8.23;;;5.38;;
80983;SDS011;70442;53.094;8.792;2023-09-12T07:39:02;7.32;;;5.57;;
80983;SDS011;70442;53.094;8.792;2023-09-12T07:41:28;6.53;;;5.40;;
80983;SDS011;70442;53.094;8.792;2023-09-12T07:43:54;6.60;;;4.77;;
80983;SDS011;70442;53.094;8.792;2023-09-12T07:46:19;5.73;;;4.33;;
80983;SDS011;70442;53.094;8.792;2023-09-12T07:48:44;6.93;;;5.40;;
80983;SDS011;70442;53.094;8.792;2023-09-12T07:51:13;7.23;;;5.53;;
80983;SDS011;70442;53.094;8.792;2023-09-12T07:53:40;7.82;;;5.47;;
80983;SDS011;70442;53.094;8.792;2023-09-12T07:56:05;6.18;;;5.07;;
80983;SDS011;70442;53.094;8.792;2023-09-12T07:58:31;8.45;;;5.75;;
80983;SDS011;70442;53.094;8.792;2023-09-12T08:00:56;7.53;;;5.50;;
80983;SDS011;70442;53.094;8.792;2023-09-12T08:03:21;6.63;;;5.37;;
80983;SDS011;70442;53.094;8.792;2023-09-12T08:05:56;7.60;;;5.10;;
80983;SDS011;70442;53.094;8.792;2023-09-12T08:08:22;6.78;;;4.97;;
80983;SDS011;70442;53.094;8.792;2023-09-12T08:10:48;7.32;;;6.05;;
80983;SDS011;70442;53.094;8.792;2023-09-12T08:13:14;7.45;;;5.05;;
80983;SDS011;70442;53.094;8.792;2023-09-12T08:15:39;6.17;;;5.47;;
80983;SDS011;70442;53.094;8.792;2023-09-12T08:18:04;6.60;;;5.07;;
80983;SDS011;70442;53.094;8.792;2023-09-12T08:20:30;5.28;;;4.18;;
80983;SDS011;70442;53.094;8.792;2023-09-12T08:22:55;6.93;;;5.00;;
80983;SDS011;70442;53.094;8.792;2023-09-12T08:25:20;6.77;;;5.20;;
80983;SDS011;70442;53.094;8.792;2023-09-12T08:27:46;6.63;;;5.15;;
80983;SDS011;70442;53.094;8.792;2023-09-12T08:30:12;6.03;;;4.40;;
80983;SDS011;70442;53.094;8.792;2023-09-12T08:32:38;6.25;;;5.05;;
80983;SDS011;70442;53.094;8.792;2023-09-12T08:35:09;6.95;;;5.00;;
80983;SDS011;70442;53.094;8.792;2023-09-12T08:37:36;6.50;;;5.00;;
80983;SDS011;70442;53.094;8.792;2023-09-12T08:40:01;5.10;;;4.00;;
80983;SDS011;70442;53.094;8.792;2023-09-12T08:42:27;5.85;;;4.55;;
80983;SDS011;70442;53.094;8.792;2023-09-12T08:44:54;6.68;;;4.68;;
80983;SDS011;70442;53.094;8.792;2023-09-12T08:47:19;5.67;;;4.33;;
80983;SDS011;70442;53.094;8.792;2023-09-12T08:49:47;5.60;;;4.13;;
80983;SDS011;70442;53.094;8.792;2023-09-12T08:52:13;6.43;;;4.32;;
80983;SDS011;70442;53.094;8.792;2023-09-12T08:54:39;5.23;;;4.00;;
80983;SDS011;70442;53.094;8.792;2023-09-12T08:57:07;6.03;;;4.23;;
80983;SDS011;70442;53.094;8.792;2023-09-12T08:59:33;5.72;;;4.63;;
80983;SDS011;70442;53.094;8.792;2023-09-12T09:01:59;5.55;;;4.20;;
80983;SDS011;70442;53.094;8.792;2023-09-12T09:04:28;4.65;;;3.50;;
80983;SDS011;70442;53.094;8.792;2023-09-12T09:06:56;5.30;;;4.28;;
80983;SDS011;70442;53.094;8.792;2023-09-12T09:09:22;6.85;;;4.38;;
80983;SDS011;70442;53.094;8.792;2023-09-12T09:11:49;5.10;;;4.20;;
80983;SDS011;70442;53.094;8.792;2023-09-12T09:14:15;4.95;;;4.05;;
80983;SDS011;70442;53.094;8.792;2023-09-12T09:16:40;5.57;;;4.37;;
80983;SDS011;70442;53.094;8.792;2023-09-12T09:19:06;6.03;;;4.20;;
80983;SDS011;70442;53.094;8.792;2023-09-12T09:21:37;5.45;;;3.75;;
80983;SDS011;70442;53.094;8.792;2023-09-12T09:24:08;4.45;;;3.83;;
80983;SDS011;70442;53.094;8.792;2023-09-12T09:26:44;6.25;;;3.83;;
80983;SDS011;70442;53.094;8.792;2023-09-12T09:29:15;6.07;;;4.53;;
80983;SDS011;70442;53.094;8.792;2023-09-12T09:31:45;5.40;;;4.53;;
80983;SDS011;70442;53.094;8.792;2023-09-12T09:36:41;5.65;;;4.32;;
80983;SDS011;70442;53.094;8.792;2023-09-12T09:39:08;5.65;;;4.45;;
80983;SDS011;70442;53.094;8.792;2023-09-12T09:41:34;6.15;;;4.53;;
80983;SDS011;70442;53.094;8.792;2023-09-12T09:43:59;6.88;;;5.13;;
80983;SDS011;70442;53.094;8.792;2023-09-12T09:46:25;5.47;;;4.77;;
80983;SDS011;70442;53.094;8.792;2023-09-12T09:48:50;6.30;;;5.28;;
80983;SDS011;70442;53.094;8.792;2023-09-12T09:51:16;7.78;;;5.15;;
80983;SDS011;70442;53.094;8.792;2023-09-12T09:53:42;7.60;;;5.43;;
80983;SDS011;70442;53.094;8.792;2023-09-12T09:56:12;7.20;;;5.65;;
80983;SDS011;70442;53.094;8.792;2023-09-12T10:01:17;6.82;;;4.82;;
80983;SDS011;70442;53.094;8.792;2023-09-12T10:03:45;6.90;;;5.60;;
80983;SDS011;70442;53.094;8.792;2023-09-12T10:06:12;6.82;;;5.13;;
80983;SDS011;70442;53.094;8.792;2023-09-12T10:08:40;7.18;;;5.68;;
80983;SDS011;70442;53.094;8.792;2023-09-12T10:11:08;7.22;;;5.82;;
80983;SDS011;70442;53.094;8.792;2023-09-12T10:13:34;8.18;;;5.30;;
80983;SDS011;70442;53.094;8.792;2023-09-12T10:16:00;7.97;;;5.65;;
80983;SDS011;70442;53.094;8.792;2023-09-12T10:18:26;6.55;;;4.82;;
80983;SDS011;70442;53.094;8.792;2023-09-12T10:20:55;7.18;;;5.03;;
80983;SDS011;70442;53.094;8.792;2023-09-12T10:23:27;5.90;;;4.78;;
80983;SDS011;70442;53.094;8.792;2023-09-12T10:25:55;6.20;;;4.75;;
80983;SDS011;70442;53.094;8.792;2023-09-12T10:28:22;6.47;;;4.80;;
80983;SDS011;70442;53.094;8.792;2023-09-12T10:30:48;6.88;;;4.88;;
80983;SDS011;70442;53.094;8.792;2023-09-12T10:33:14;6.40;;;4.65;;
80983;SDS011;70442;53.094;8.792;2023-09-12T10:35:40;6.60;;;5.47;;
80983;SDS011;70442;53.094;8.792;2023-09-12T10:38:05;6.47;;;4.88;;
80983;SDS011;70442;53.094;8.792;2023-09-12T10:40:34;8.05;;;6.05;;
80983;SDS011;70442;53.094;8.792;2023-09-12T10:43:01;5.60;;;4.50;;
80983;SDS011;70442;53.094;8.792;2023-09-12T10:45:31;5.90;;;4.63;;
80983;SDS011;70442;53.094;8.792;2023-09-12T10:47:57;5.97;;;4.60;;
80983;SDS011;70442;53.094;8.792;2023-09-12T10:50:22;7.07;;;4.83;;
80983;SDS011;70442;53.094;8.792;2023-09-12T10:52:48;6.45;;;5.22;;
80983;SDS011;70442;53.094;8.792;2023-09-12T10:55:16;6.07;;;4.93;;
80983;SDS011;70442;53.094;8.792;2023-09-12T10:58:02;7.03;;;5.45;;
80983;SDS011;70442;53.094;8.792;2023-09-12T11:00:29;7.30;;;5.25;;
80983;SDS011;70442;53.094;8.792;2023-09-12T11:02:57;6.88;;;5.38;;
80983;SDS011;70442;53.094;8.792;2023-09-12T11:08:00;7.15;;;5.28;;
80983;SDS011;70442;53.094;8.792;2023-09-12T11:10:29;7.18;;;5.60;;
80983;SDS011;70442;53.094;8.792;2023-09-12T11:12:56;6.63;;;4.90;;
80983;SDS011;70442;53.094;8.792;2023-09-12T11:15:23;7.88;;;5.95;;
80983;SDS011;70442;53.094;8.792;2023-09-12T11:17:49;7.90;;;5.28;;
80983;SDS011;70442;53.094;8.792;2023-09-12T11:20:16;6.93;;;5.28;;
80983;SDS011;70442;53.094;8.792;2023-09-12T11:22:42;6.63;;;5.35;;
80983;SDS011;70442;53.094;8.792;2023-09-12T11:25:21;8.48;;;6.22;;
80983;SDS011;70442;53.094;8.792;2023-09-12T11:30:23;10.52;;;5.85;;
80983;SDS011;70442;53.094;8.792;2023-09-12T11:32:50;6.90;;;5.13;;
80983;SDS011;70442;53.094;8.792;2023-09-12T11:35:16;8.10;;;5.80;;
80983;SDS011;70442;53.094;8.792;2023-09-12T11:37:50;7.72;;;5.47;;
80983;SDS011;70442;53.094;8.792;2023-09-12T11:42:58;6.85;;;5.57;;
80983;SDS011;70442;53.094;8.792;2023-09-12T11:45:23;7.50;;;5.22;;
80983;SDS011;70442;53.094;8.792;2023-09-12T11:47:49;7.07;;;5.57;;
80983;SDS011;70442;53.094;8.792;2023-09-12T11:50:27;8.55;;;6.40;;
80983;SDS011;70442;53.094;8.792;2023-09-12T11:55:42;8.85;;;6.15;;
80983;SDS011;70442;53.094;8.792;2023-09-12T11:58:10;9.05;;;6.60;;
80983;SDS011;70442;53.094;8.792;2023-09-12T12:00:36;7.90;;;6.13;;
80983;SDS011;70442;53.094;8.792;2023-09-12T12:03:02;7.75;;;5.38;;
80983;SDS011;70442;53.094;8.792;2023-09-12T12:05:28;7.18;;;5.38;;
80983;SDS011;70442;53.094;8.792;2023-09-12T12:07:53;7.30;;;6.28;;
80983;SDS011;70442;53.094;8.792;2023-09-12T12:10:19;7.22;;;5.55;;
80983;SDS011;70442;53.094;8.792;2023-09-12T12:12:45;7.30;;;5.55;;
80983;SDS011;70442;53.094;8.792;2023-09-12T12:15:13;7.70;;;5.70;;
80983;SDS011;70442;53.094;8.792;2023-09-12T12:17:41;7.43;;;5.35;;
80983;SDS011;70442;53.094;8.792;2023-09-12T12:20:08;5.70;;;5.10;;
80983;SDS011;70442;53.094;8.792;2023-09-12T12:22:36;6.93;;;5.13;;
80983;SDS011;70442;53.094;8.792;2023-09-12T12:25:06;5.55;;;4.47;;
80983;SDS011;70442;53.094;8.792;2023-09-12T12:27:35;8.10;;;5.45;;
80983;SDS011;70442;53.094;8.792;2023-09-12T12:30:02;6.25;;;5.03;;
80983;SDS011;70442;53.094;8.792;2023-09-12T12:32:28;5.30;;;4.43;;
80983;SDS011;70442;53.094;8.792;2023-09-12T12:34:54;6.37;;;4.83;;
80983;SDS011;70442;53.094;8.792;2023-09-12T12:37:19;6.33;;;4.83;;
80983;SDS011;70442;53.094;8.792;2023-09-12T12:39:44;6.40;;;4.27;;
80983;SDS011;70442;53.094;8.792;2023-09-12T12:42:10;4.90;;;3.92;;
80983;SDS011;70442;53.094;8.792;2023-09-12T12:44:35;5.27;;;3.97;;
80983;SDS011;70442;53.094;8.792;2023-09-12T12:47:06;5.10;;;4.38;;
80983;SDS011;70442;53.094;8.792;2023-09-12T12:49:35;5.07;;;4.07;;
80983;SDS011;70442;53.094;8.792;2023-09-12T12:52:03;5.95;;;4.20;;
80983;SDS011;70442;53.094;8.792;2023-09-12T12:54:31;6.13;;;4.18;;
80983;SDS011;70442;53.094;8.792;2023-09-12T12:56:56;5.28;;;3.78;;
80983;SDS011;70442;53.094;8.792;2023-09-12T12:59:22;5.80;;;3.93;;
80983;SDS011;70442;53.094;8.792;2023-09-12T13:01:47;7.70;;;4.50;;
80983;SDS011;70442;53.094;8.792;2023-09-12T13:04:12;5.10;;;3.80;;
80983;SDS011;70442;53.094;8.792;2023-09-12T13:06:38;4.53;;;3.70;;
80983;SDS011;70442;53.094;8.792;2023-09-12T13:09:04;5.65;;;4.38;;
80983;SDS011;70442;53.094;8.792;2023-09-12T13:11:31;5.80;;;4.43;;
80983;SDS011;70442;53.094;8.792;2023-09-12T13:13:59;4.90;;;3.70;;
80983;SDS011;70442;53.094;8.792;2023-09-12T13:16:24;16.17;;;3.95;;
80983;SDS011;70442;53.094;8.792;2023-09-12T13:18:50;5.07;;;3.75;;
80983;SDS011;70442;53.094;8.792;2023-09-12T13:21:15;4.17;;;3.37;;
80983;SDS011;70442;53.094;8.792;2023-09-12T13:23:40;3.90;;;3.30;;
80983;SDS011;70442;53.094;8.792;2023-09-12T13:26:07;4.83;;;3.23;;
80983;SDS011;70442;53.094;8.792;2023-09-12T13:28:33;4.43;;;3.38;;
80983;SDS011;70442;53.094;8.792;2023-09-12T13:30:58;3.57;;;3.20;;
80983;SDS011;70442;53.094;8.792;2023-09-12T13:33:23;5.13;;;3.20;;
80983;SDS011;70442;53.094;8.792;2023-09-12T13:35:49;3.67;;;3.33;;
80983;SDS011;70442;53.094;8.792;2023-09-12T13:38:15;4.25;;;2.83;;
80983;SDS011;70442;53.094;8.792;2023-09-12T13:40:42;3.65;;;2.83;;
80983;SDS011;70442;53.094;8.792;2023-09-12T13:43:08;4.38;;;3.15;;
80983;SDS011;70442;53.094;8.792;2023-09-12T13:45:33;4.85;;;3.58;;
80983;SDS011;70442;53.094;8.792;2023-09-12T13:47:59;4.80;;;2.85;;
80983;SDS011;70442;53.094;8.792;2023-09-12T13:50:25;4.18;;;3.45;;
80983;SDS011;70442;53.094;8.792;2023-09-12T13:52:53;4.05;;;3.00;;
80983;SDS011;70442;53.094;8.792;2023-09-12T13:55:19;3.72;;;3.00;;
80983;SDS011;70442;53.094;8.792;2023-09-12T13:57:45;3.73;;;2.93;;
80983;SDS011;70442;53.094;8.792;2023-09-12T14:00:10;4.97;;;3.53;;
80983;SDS011;70442;53.094;8.792;2023-09-12T14:02:36;3.75;;;3.15;;
80983;SDS011;70442;53.094;8.792;2023-09-12T14:05:01;3.87;;;3.23;;
80983;SDS011;70442;53.094;8.792;2023-09-12T14:07:26;4.40;;;3.47;;
80983;SDS011;70442;53.094;8.792;2023-09-12T14:09:52;5.90;;;4.00;;
80983;SDS011;70442;53.094;8.792;2023-09-12T14:12:20;5.50;;;4.53;;
80983;SDS011;70442;53.094;8.792;2023-09-12T14:14:46;4.38;;;3.17;;
80983;SDS011;70442;53.094;8.792;2023-09-12T14:17:13;4.53;;;3.83;;
80983;SDS011;70442;53.094;8.792;2023-09-12T14:19:38;4.60;;;3.67;;
80983;SDS011;70442;53.094;8.792;2023-09-12T14:22:04;5.15;;;3.92;;
80983;SDS011;70442;53.094;8.792;2023-09-12T14:24:29;4.30;;;3.73;;
80983;SDS011;70442;53.094;8.792;2023-09-12T14:26:54;3.80;;;2.90;;
80983;SDS011;70442;53.094;8.792;2023-09-12T14:29:20;5.07;;;3.37;;
80983;SDS011;70442;53.094;8.792;2023-09-12T14:31:45;5.03;;;3.97;;
80983;SDS011;70442;53.094;8.792;2023-09-12T14:34:15;4.95;;;3.45;;
80983;SDS011;70442;53.094;8.792;2023-09-12T14:36:41;5.47;;;3.20;;
80983;SDS011;70442;53.094;8.792;2023-09-12T14:39:06;4.65;;;3.58;;
80983;SDS011;70442;53.094;8.792;2023-09-12T14:41:32;4.43;;;3.40;;
80983;SDS011;70442;53.094;8.792;2023-09-12T14:44:00;4.25;;;3.80;;
80983;SDS011;70442;53.094;8.792;2023-09-12T14:46:25;4.97;;;3.47;;
80983;SDS011;70442;53.094;8.792;2023-09-12T14:48:50;5.28;;;3.55;;
80983;SDS011;70442;53.094;8.792;2023-09-12T14:51:19;4.70;;;3.65;;
80983;SDS011;70442;53.094;8.792;2023-09-12T14:53:44;5.57;;;3.75;;
80983;SDS011;70442;53.094;8.792;2023-09-12T14:58:36;3.10;;;2.70;;
80983;SDS011;70442;53.094;8.792;2023-09-12T15:01:01;4.88;;;3.38;;
80983;SDS011;70442;53.094;8.792;2023-09-12T15:03:27;4.38;;;3.22;;
80983;SDS011;70442;53.094;8.792;2023-09-12T15:05:52;5.88;;;3.92;;
80983;SDS011;70442;53.094;8.792;2023-09-12T15:08:18;4.32;;;3.42;;
80983;SDS011;70442;53.094;8.792;2023-09-12T15:10:43;4.73;;;3.80;;